createdAt,value
2018-07-04T00:02:27.666Z,99.90
2018-07-04T00:07:39.021Z,99.90
2018-07-04T00:12:50.179Z,99.90
2018-07-04T00:18:01.438Z,99.90
2018-07-04T00:23:12.787Z,99.90
2018-07-04T00:28:24.182Z,99.90
2018-07-04T00:33:35.522Z,99.90
2018-07-04T00:38:46.748Z,99.90
2018-07-04T00:43:57.876Z,99.90
2018-07-04T00:49:09.131Z,99.90
2018-07-04T00:54:20.363Z,99.90
2018-07-04T00:59:31.757Z,99.90
2018-07-04T01:04:43.094Z,99.90
2018-07-04T01:09:54.296Z,99.90
2018-07-04T01:15:05.539Z,99.90
2018-07-04T01:20:16.696Z,99.90
2018-07-04T01:25:27.948Z,99.90
2018-07-04T01:30:39.047Z,99.90
2018-07-04T01:35:50.285Z,99.90
2018-07-04T01:41:01.428Z,99.90
2018-07-04T01:46:12.668Z,99.90
2018-07-04T01:51:23.887Z,99.90
2018-07-04T01:56:35.112Z,99.90
2018-07-04T02:01:46.324Z,99.90
2018-07-04T02:06:57.700Z,99.90
2018-07-04T02:12:08.874Z,99.90
2018-07-04T02:17:20.044Z,99.90
2018-07-04T02:22:31.227Z,99.90
2018-07-04T02:27:42.644Z,99.90
2018-07-04T02:32:53.723Z,99.90
2018-07-04T02:38:04.957Z,99.90
2018-07-04T02:43:16.078Z,99.90
2018-07-04T02:48:27.376Z,99.90
2018-07-04T02:53:38.763Z,99.90
2018-07-04T02:58:50.159Z,99.90
2018-07-04T03:04:01.488Z,99.90
2018-07-04T03:09:12.643Z,99.90
2018-07-04T03:14:24.098Z,99.90
2018-07-04T03:19:35.346Z,99.90
2018-07-04T03:24:46.607Z,99.90
2018-07-04T03:35:03.304Z,99.90
2018-07-04T03:40:14.459Z,99.90
2018-07-04T03:45:25.706Z,99.90
2018-07-04T03:50:36.920Z,99.90
2018-07-04T03:55:48.032Z,99.90
2018-07-04T04:00:59.311Z,99.90
2018-07-04T04:06:10.448Z,99.90
2018-07-04T04:11:21.639Z,99.90
2018-07-04T04:16:32.908Z,99.90
2018-07-04T04:21:44.219Z,99.90
2018-07-04T04:26:55.491Z,99.90
2018-07-04T04:32:06.735Z,99.90
2018-07-04T04:37:18.048Z,99.90
2018-07-04T04:42:29.440Z,99.90
2018-07-04T04:47:40.876Z,99.90
2018-07-04T04:52:52.090Z,99.90
2018-07-04T04:58:03.237Z,99.90
2018-07-04T05:03:14.627Z,99.90
2018-07-04T05:08:25.966Z,99.90
2018-07-04T05:13:37.246Z,99.90
2018-07-04T05:18:48.552Z,99.90
2018-07-04T05:23:59.676Z,99.90
2018-07-04T05:29:10.994Z,99.90
2018-07-04T05:34:22.253Z,99.90
2018-07-04T05:39:33.479Z,99.90
2018-07-04T05:44:44.717Z,99.90
2018-07-04T05:49:56.006Z,99.90
2018-07-04T05:55:07.443Z,99.90
2018-07-04T06:00:18.889Z,99.90
2018-07-04T06:05:30.060Z,99.90
2018-07-04T06:10:41.426Z,99.90
2018-07-04T06:15:52.644Z,99.90
2018-07-04T06:21:04.077Z,99.90
2018-07-04T06:26:15.176Z,99.90
2018-07-04T06:31:26.366Z,99.90
2018-07-04T06:36:37.697Z,99.90
2018-07-04T06:41:30.508Z,99.90
2018-07-04T06:46:23.364Z,99.90
2018-07-04T06:51:16.181Z,99.90
2018-07-04T06:56:08.997Z,99.90
2018-07-04T07:01:01.804Z,99.90
2018-07-04T07:06:13.124Z,99.90
2018-07-04T07:11:24.252Z,99.90
2018-07-04T07:16:35.592Z,99.90
2018-07-04T07:21:46.683Z,99.90
2018-07-04T07:26:57.938Z,99.90
2018-07-04T07:32:09.171Z,99.90
2018-07-04T07:37:20.288Z,99.90
2018-07-04T07:42:31.599Z,99.90
2018-07-04T07:47:42.699Z,99.90
2018-07-04T07:52:53.822Z,99.90
2018-07-04T07:58:04.992Z,99.90
2018-07-04T08:03:16.183Z,99.90
2018-07-04T08:08:27.569Z,99.90
2018-07-04T08:13:38.886Z,99.90
2018-07-04T08:18:50.054Z,99.80
2018-07-04T08:24:01.239Z,99.90
2018-07-04T08:29:12.492Z,99.90
2018-07-04T08:34:23.727Z,98.50
2018-07-04T08:39:34.984Z,99.90
2018-07-04T08:44:46.170Z,99.90
2018-07-04T08:49:57.463Z,99.40
2018-07-04T08:55:08.700Z,97.40
2018-07-04T09:00:20.081Z,96.80
2018-07-04T09:05:31.428Z,96.80
2018-07-04T09:10:42.613Z,97.30
2018-07-04T09:15:53.827Z,97.00
2018-07-04T09:21:05.140Z,95.10
2018-07-04T09:26:16.353Z,94.20
2018-07-04T09:31:27.624Z,93.70
2018-07-04T09:36:38.711Z,92.10
2018-07-04T09:41:50.022Z,94.60
2018-07-04T09:47:01.115Z,94.30
2018-07-04T09:52:12.308Z,93.40
2018-07-04T09:57:23.600Z,92.80
2018-07-04T10:02:34.864Z,91.20
2018-07-04T10:07:46.079Z,93.70
2018-07-04T10:12:57.456Z,95.40
2018-07-04T10:18:08.799Z,97.10
2018-07-04T10:23:20.112Z,97.60
2018-07-04T10:28:31.229Z,99.40
2018-07-04T10:33:42.547Z,99.20
2018-07-04T10:38:53.787Z,99.20
2018-07-04T10:44:05.076Z,99.00
2018-07-04T10:49:16.520Z,98.70
2018-07-04T10:54:27.777Z,99.90
2018-07-04T10:59:38.983Z,98.50
2018-07-04T11:04:50.381Z,97.10
2018-07-04T11:10:01.754Z,99.50
2018-07-04T11:15:13.019Z,99.90
2018-07-04T11:20:24.374Z,99.90
2018-07-04T11:25:35.757Z,99.90
2018-07-04T11:30:47.010Z,99.90
2018-07-04T11:35:58.247Z,99.90
2018-07-04T11:41:09.598Z,99.90
2018-07-04T11:46:02.431Z,99.90
2018-07-04T11:55:48.879Z,99.90
2018-07-04T12:00:41.693Z,99.90
2018-07-04T12:05:52.945Z,99.90
2018-07-04T12:15:39.044Z,98.70
2018-07-04T12:20:31.844Z,98.30
2018-07-04T12:25:24.684Z,97.10
2018-07-04T12:30:17.516Z,96.40
2018-07-04T12:35:10.324Z,97.10
2018-07-04T12:40:03.143Z,96.40
2018-07-04T12:44:55.994Z,95.20
2018-07-04T12:49:48.809Z,94.10
2018-07-04T12:54:46.990Z,93.50
2018-07-04T12:59:58.117Z,95.10
2018-07-04T13:05:09.355Z,95.70
2018-07-04T13:10:20.630Z,96.40
2018-07-04T13:15:32.024Z,94.80
2018-07-04T13:20:43.406Z,94.00
2018-07-04T13:25:54.774Z,93.60
2018-07-04T13:36:11.381Z,94.80
2018-07-04T13:41:22.591Z,96.00
2018-07-04T13:46:34.013Z,97.50
2018-07-04T13:51:45.251Z,98.40
2018-07-04T13:56:56.602Z,98.40
2018-07-04T14:02:07.975Z,97.10
2018-07-04T14:07:19.265Z,97.70
2018-07-04T14:12:30.490Z,97.90
2018-07-04T14:17:41.755Z,97.70
2018-07-04T14:22:53.077Z,97.00
2018-07-04T14:28:04.370Z,96.40
2018-07-04T14:33:15.496Z,94.80
2018-07-04T14:38:26.755Z,96.10
2018-07-04T14:43:38.135Z,96.00
2018-07-04T14:48:49.470Z,95.00
2018-07-04T14:54:00.783Z,90.50
2018-07-04T14:59:12.102Z,92.20
2018-07-04T15:04:23.531Z,93.50
2018-07-04T15:09:34.520Z,92.70
2018-07-04T15:14:45.840Z,90.50
2018-07-04T15:19:57.106Z,91.20
2018-07-04T15:25:08.243Z,94.10
2018-07-04T15:30:19.608Z,92.90
2018-07-04T15:35:31.365Z,93.50
2018-07-04T15:40:42.752Z,94.00
2018-07-04T15:45:54.112Z,94.70
2018-07-04T15:51:05.521Z,94.10
2018-07-04T15:56:16.844Z,94.50
2018-07-04T16:01:28.164Z,93.00
2018-07-04T16:06:39.695Z,93.20
2018-07-04T16:11:51.175Z,91.90
2018-07-04T16:17:02.553Z,91.00
2018-07-04T16:22:13.931Z,92.20
2018-07-04T16:27:25.449Z,90.70
2018-07-04T16:32:36.762Z,91.60
2018-07-04T16:37:48.066Z,91.90
2018-07-04T16:42:59.398Z,90.70
2018-07-04T16:48:10.665Z,88.40
2018-07-04T16:53:22.081Z,91.30
2018-07-04T16:58:33.448Z,90.50
2018-07-04T17:03:44.637Z,90.60
2018-07-04T17:08:55.698Z,91.70
2018-07-04T17:14:07.004Z,92.30
2018-07-04T17:19:18.357Z,89.00
2018-07-04T17:24:29.621Z,87.70
2018-07-04T17:29:40.898Z,85.30
2018-07-04T17:34:52.088Z,87.20
2018-07-04T17:40:03.473Z,88.30
2018-07-04T17:45:14.757Z,83.30
2018-07-04T17:50:27.560Z,83.20
2018-07-04T17:55:38.881Z,83.60
2018-07-04T18:00:50.182Z,86.40
2018-07-04T18:06:01.549Z,87.20
2018-07-04T18:16:18.205Z,90.80
2018-07-04T18:21:29.416Z,92.30
2018-07-04T18:26:40.706Z,92.30
2018-07-04T18:31:52.096Z,92.00
2018-07-04T18:37:03.317Z,91.40
2018-07-04T18:42:14.729Z,92.30
2018-07-04T18:47:26.057Z,92.50
2018-07-04T18:52:37.289Z,92.90
2018-07-04T18:57:48.558Z,95.40
2018-07-04T19:02:59.857Z,95.90
2018-07-04T19:08:11.156Z,95.60
2018-07-04T19:13:22.748Z,96.50
2018-07-04T19:18:34.109Z,97.00
2018-07-04T19:23:45.236Z,98.70
2018-07-04T19:28:56.324Z,98.70
2018-07-04T19:34:07.499Z,98.90
2018-07-04T19:39:18.689Z,99.90
2018-07-04T19:44:30.014Z,99.90
2018-07-04T19:49:41.226Z,99.90
2018-07-04T19:54:52.409Z,99.90
2018-07-04T20:00:03.689Z,99.90
2018-07-04T20:05:15.116Z,99.90
2018-07-04T20:10:26.604Z,99.90
2018-07-04T20:15:37.851Z,99.90
2018-07-04T20:20:49.098Z,99.90
2018-07-04T20:26:00.491Z,99.90
2018-07-04T20:31:11.831Z,99.90
2018-07-04T20:36:23.088Z,99.90
2018-07-04T20:41:34.409Z,99.90
2018-07-04T20:46:45.731Z,99.90
2018-07-04T20:51:57.120Z,99.90
2018-07-04T20:57:08.364Z,99.90
2018-07-04T21:02:19.827Z,99.90
2018-07-04T21:07:30.935Z,99.90
2018-07-04T21:12:42.173Z,99.90
2018-07-04T21:22:58.853Z,99.90
2018-07-04T21:28:10.252Z,99.90
2018-07-04T21:33:21.591Z,99.90
2018-07-04T21:38:32.920Z,99.90
2018-07-04T21:43:44.654Z,99.90
2018-07-04T21:48:56.044Z,99.90
2018-07-04T21:54:07.401Z,99.90
2018-07-04T21:59:18.747Z,99.90
2018-07-04T22:04:29.962Z,99.90
2018-07-04T22:09:41.231Z,99.90
2018-07-04T22:14:52.592Z,99.90
2018-07-04T22:20:03.953Z,99.90
2018-07-04T22:25:15.268Z,99.90
2018-07-04T22:30:26.440Z,99.90
2018-07-04T22:35:37.580Z,99.90
2018-07-04T22:40:48.837Z,99.90
2018-07-04T22:46:00.124Z,99.90
2018-07-04T22:51:11.371Z,99.90
2018-07-04T22:56:22.697Z,99.90
2018-07-04T23:01:33.792Z,99.90
2018-07-04T23:06:44.931Z,99.90
2018-07-04T23:11:56.135Z,99.90
2018-07-04T23:17:07.376Z,99.90
2018-07-04T23:22:18.680Z,99.90
2018-07-04T23:27:29.904Z,99.90
2018-07-04T23:37:47.151Z,99.90
2018-07-04T23:42:58.455Z,99.90
2018-07-04T23:48:09.652Z,99.90
2018-07-04T23:53:20.949Z,99.90
2018-07-04T23:58:32.434Z,99.90
